createdAt,value
2019-06-27T00:05:46.590Z,99.90
2019-06-27T00:08:19.398Z,99.90
2019-06-27T00:10:52.179Z,99.90
2019-06-27T00:13:25.330Z,99.90
2019-06-27T00:18:30.586Z,99.90
2019-06-27T00:21:05.165Z,99.90
2019-06-27T00:28:43.742Z,99.90
2019-06-27T00:31:17.281Z,99.90
2019-06-27T00:36:21.530Z,99.90
2019-06-27T00:38:55.606Z,99.90
2019-06-27T00:44:01.223Z,99.90
2019-06-27T00:49:08.754Z,99.90
2019-06-27T00:56:46.222Z,99.90
2019-06-27T00:59:18.977Z,99.90
2019-06-27T01:01:51.726Z,99.90
2019-06-27T01:04:23.602Z,99.90
2019-06-27T01:09:26.996Z,99.90
2019-06-27T01:11:59.809Z,99.90
2019-06-27T01:17:03.122Z,99.90
2019-06-27T01:19:35.938Z,99.90
2019-06-27T01:24:41.336Z,99.90
2019-06-27T01:32:19.637Z,99.90
2019-06-27T01:34:51.517Z,99.90
2019-06-27T01:37:24.359Z,99.90
2019-06-27T01:39:56.301Z,99.90
2019-06-27T01:42:30.221Z,99.90
2019-06-27T01:47:35.146Z,99.90
2019-06-27T01:52:40.804Z,99.90
2019-06-27T01:57:46.981Z,99.90
2019-06-27T02:00:19.361Z,99.90
2019-06-27T02:02:51.274Z,99.90
2019-06-27T02:05:22.613Z,99.90
2019-06-27T02:07:54.516Z,99.90
2019-06-27T02:10:27.379Z,99.90
2019-06-27T02:13:00.210Z,99.90
2019-06-27T02:15:32.050Z,99.90
2019-06-27T02:25:37.953Z,99.90
2019-06-27T02:30:44.946Z,99.90
2019-06-27T02:33:16.826Z,99.90
2019-06-27T02:35:51.402Z,99.90
2019-06-27T02:38:24.621Z,99.90
2019-06-27T02:40:59.135Z,99.90
2019-06-27T02:46:04.299Z,99.90
2019-06-27T02:48:36.175Z,99.90
2019-06-27T02:51:07.514Z,99.90
2019-06-27T03:01:15.611Z,99.90
2019-06-27T03:03:48.423Z,99.90
2019-06-27T03:06:20.285Z,99.90
2019-06-27T03:08:52.267Z,99.90
2019-06-27T03:11:24.130Z,99.90
2019-06-27T03:21:33.490Z,99.90
2019-06-27T03:24:04.941Z,99.90
2019-06-27T03:29:09.508Z,99.90
2019-06-27T03:31:41.375Z,99.90
2019-06-27T03:36:48.246Z,99.90
2019-06-27T03:39:21.036Z,99.90
2019-06-27T03:49:30.990Z,99.90
2019-06-27T03:54:35.603Z,99.90
2019-06-27T03:59:40.920Z,99.90
2019-06-27T04:07:17.226Z,99.90
2019-06-27T04:09:50.035Z,99.90
2019-06-27T04:12:22.771Z,99.90
2019-06-27T04:14:55.663Z,99.90
2019-06-27T04:20:01.711Z,99.90
2019-06-27T04:22:33.639Z,99.90
2019-06-27T04:25:07.416Z,99.90
2019-06-27T04:27:38.768Z,99.90
2019-06-27T04:32:42.188Z,99.90
2019-06-27T04:35:15.155Z,99.90
2019-06-27T04:37:47.496Z,99.90
2019-06-27T04:42:51.336Z,99.90
2019-06-27T04:47:58.947Z,99.90
2019-06-27T04:58:09.949Z,99.90
2019-06-27T05:00:42.754Z,99.90
2019-06-27T05:03:15.569Z,99.90
2019-06-27T05:08:20.868Z,99.90
2019-06-27T05:13:25.959Z,99.90
2019-06-27T05:18:31.596Z,99.90
2019-06-27T05:26:09.474Z,99.90
2019-06-27T05:28:41.777Z,99.90
2019-06-27T05:33:46.044Z,99.90
2019-06-27T05:38:52.715Z,99.90
2019-06-27T05:41:24.549Z,99.90
2019-06-27T05:46:28.926Z,99.90
2019-06-27T05:56:37.332Z,99.90
2019-06-27T05:59:09.656Z,99.90
2019-06-27T06:01:42.554Z,99.90
2019-06-27T06:04:15.446Z,99.90
2019-06-27T06:09:20.541Z,99.90
2019-06-27T06:16:56.470Z,99.90
2019-06-27T06:27:06.554Z,99.90
2019-06-27T06:32:12.698Z,99.90
2019-06-27T06:37:15.427Z,99.90
2019-06-27T06:44:52.347Z,99.90
2019-06-27T06:47:25.398Z,99.90
2019-06-27T06:49:57.727Z,99.90
2019-06-27T06:52:30.654Z,99.90
2019-06-27T06:55:03.589Z,99.90
2019-06-27T06:57:36.893Z,99.90
2019-06-27T07:00:10.446Z,99.90
2019-06-27T07:02:43.454Z,99.90
2019-06-27T07:05:17.528Z,99.90
2019-06-27T07:07:49.404Z,99.90
2019-06-27T07:10:22.567Z,99.90
2019-06-27T07:12:55.643Z,99.90
2019-06-27T07:15:29.078Z,99.90
2019-06-27T07:25:38.545Z,99.90
2019-06-27T07:28:13.215Z,99.90
2019-06-27T07:30:47.406Z,99.90
2019-06-27T07:33:19.349Z,99.90
2019-06-27T07:35:51.238Z,99.90
2019-06-27T07:38:24.004Z,99.90
2019-06-27T07:46:00.860Z,99.90
2019-06-27T07:48:33.898Z,99.90
2019-06-27T07:51:07.229Z,99.90
2019-06-27T07:58:44.090Z,99.90
2019-06-27T08:01:33.706Z,99.90
2019-06-27T08:03:51.157Z,99.90
2019-06-27T08:08:56.377Z,99.90
2019-06-27T08:11:29.361Z,99.90
2019-06-27T08:14:10.865Z,99.90
2019-06-27T08:19:18.710Z,99.90
2019-06-27T08:21:51.571Z,99.90
2019-06-27T08:26:56.827Z,99.90
2019-06-27T08:29:28.765Z,99.90
2019-06-27T08:32:01.581Z,99.90
2019-06-27T08:37:04.984Z,99.90
2019-06-27T08:39:37.871Z,99.90
2019-06-27T08:42:10.285Z,99.90
2019-06-27T08:44:43.156Z,99.90
2019-06-27T08:52:20.903Z,99.90
2019-06-27T08:57:24.952Z,99.90
2019-06-27T08:59:59.430Z,99.90
2019-06-27T09:02:31.285Z,99.90
2019-06-27T09:05:06.288Z,99.90
2019-06-27T09:07:39.292Z,99.90
2019-06-27T09:10:11.538Z,99.90
2019-06-27T09:12:43.801Z,99.90
2019-06-27T09:17:50.359Z,99.90
2019-06-27T09:22:54.787Z,99.90
2019-06-27T09:25:27.590Z,99.90
2019-06-27T09:30:34.449Z,99.90
2019-06-27T09:33:06.340Z,99.90
2019-06-27T09:35:38.309Z,99.90
2019-06-27T09:38:11.766Z,99.90
2019-06-27T09:40:44.674Z,99.90
2019-06-27T09:43:16.277Z,99.90
2019-06-27T09:45:49.401Z,99.90
2019-06-27T09:48:21.401Z,99.90
2019-06-27T09:53:27.348Z,99.90
2019-06-27T09:58:31.730Z,99.90
2019-06-27T10:06:10.552Z,98.90
2019-06-27T10:08:42.416Z,98.50
2019-06-27T10:11:14.414Z,99.00
2019-06-27T10:13:50.189Z,98.30
2019-06-27T10:16:23.023Z,97.90
2019-06-27T10:18:55.829Z,96.20
2019-06-27T10:21:28.635Z,96.40
2019-06-27T10:24:01.475Z,95.40
2019-06-27T10:26:33.454Z,94.70
2019-06-27T10:29:06.290Z,95.00
2019-06-27T10:31:39.183Z,95.00
2019-06-27T10:34:12.603Z,93.80
2019-06-27T10:36:46.543Z,94.60
2019-06-27T10:39:18.421Z,93.90
2019-06-27T10:41:51.234Z,91.90
2019-06-27T10:44:24.014Z,91.50
2019-06-27T10:46:55.425Z,90.70
2019-06-27T10:49:27.339Z,92.00
2019-06-27T10:52:00.981Z,92.40
2019-06-27T10:54:33.788Z,92.10
2019-06-27T10:57:06.621Z,91.80
2019-06-27T10:59:38.601Z,92.10
2019-06-27T11:02:11.513Z,93.60
2019-06-27T11:04:43.691Z,93.70
2019-06-27T11:07:15.581Z,92.70
2019-06-27T11:09:50.179Z,93.00
2019-06-27T11:12:21.982Z,93.70
2019-06-27T11:17:28.147Z,93.70
2019-06-27T11:20:02.720Z,93.40
2019-06-27T11:22:37.145Z,93.70
2019-06-27T11:25:11.866Z,93.40
2019-06-27T11:27:44.795Z,93.80
2019-06-27T11:30:18.102Z,92.70
2019-06-27T11:32:52.411Z,92.90
2019-06-27T11:35:25.204Z,92.50
2019-06-27T11:37:58.005Z,91.30
2019-06-27T11:40:29.382Z,91.90
2019-06-27T11:43:01.389Z,93.30
2019-06-27T11:45:34.365Z,92.00
2019-06-27T11:48:06.224Z,90.50
2019-06-27T11:50:39.015Z,91.00
2019-06-27T11:53:12.549Z,90.70
2019-06-27T11:55:45.269Z,91.60
2019-06-27T11:58:18.181Z,90.20
2019-06-27T12:00:51.210Z,89.20
2019-06-27T12:03:24.544Z,90.00
2019-06-27T12:05:58.606Z,89.80
2019-06-27T12:08:32.252Z,90.10
2019-06-27T12:11:05.136Z,88.50
2019-06-27T12:13:38.449Z,85.00
2019-06-27T12:16:12.508Z,84.20
2019-06-27T12:18:44.413Z,83.80
2019-06-27T12:21:16.278Z,84.30
2019-06-27T12:23:49.069Z,85.00
2019-06-27T12:26:22.100Z,81.60
2019-06-27T12:28:54.890Z,82.30
2019-06-27T12:31:27.297Z,83.10
2019-06-27T12:34:06.778Z,81.20
2019-06-27T12:36:34.738Z,81.10
2019-06-27T12:39:08.352Z,82.10
2019-06-27T12:41:40.412Z,82.00
2019-06-27T12:44:13.234Z,82.60
2019-06-27T12:46:45.736Z,81.40
2019-06-27T12:49:18.615Z,81.90
2019-06-27T12:51:51.039Z,83.30
2019-06-27T12:54:25.154Z,82.80
2019-06-27T12:56:57.157Z,81.60
2019-06-27T12:59:29.013Z,82.10
2019-06-27T13:02:03.662Z,80.10
2019-06-27T13:04:35.580Z,78.00
2019-06-27T13:07:07.888Z,74.50
2019-06-27T13:09:39.317Z,78.90
2019-06-27T13:12:13.837Z,78.30
2019-06-27T13:14:46.721Z,80.80
2019-06-27T13:17:19.530Z,83.00
2019-06-27T13:19:51.530Z,79.10
2019-06-27T13:22:24.285Z,79.10
2019-06-27T13:24:58.961Z,80.00
2019-06-27T13:27:33.165Z,77.70
2019-06-27T13:30:11.267Z,76.10
2019-06-27T13:32:44.088Z,77.80
2019-06-27T13:35:16.919Z,79.30
2019-06-27T13:37:48.890Z,78.80
2019-06-27T13:40:21.194Z,75.80
2019-06-27T13:42:55.681Z,79.30
2019-06-27T13:45:28.657Z,78.50
2019-06-27T13:48:00.527Z,81.00
2019-06-27T13:50:33.347Z,79.40
2019-06-27T13:53:05.205Z,79.30
2019-06-27T13:55:38.195Z,80.30
2019-06-27T13:58:11.113Z,78.70
2019-06-27T14:00:45.366Z,79.80
2019-06-27T14:03:18.234Z,79.20
2019-06-27T14:05:50.957Z,77.50
2019-06-27T14:10:59.291Z,80.80
2019-06-27T14:13:32.187Z,78.10
2019-06-27T14:16:05.996Z,78.00
2019-06-27T14:18:37.761Z,80.00
2019-06-27T14:33:53.282Z,80.10
2019-06-27T14:36:25.045Z,78.80
2019-06-27T14:38:56.698Z,78.20
2019-06-27T14:41:29.407Z,79.80
2019-06-27T14:44:02.616Z,78.40
2019-06-27T14:49:08.879Z,78.40
2019-06-27T14:51:40.850Z,78.30
2019-06-27T14:54:14.446Z,77.10
2019-06-27T14:56:46.342Z,78.90
2019-06-27T14:59:19.173Z,74.90
2019-06-27T15:01:51.951Z,75.40
2019-06-27T15:04:26.509Z,76.40
2019-06-27T15:07:01.020Z,75.40
2019-06-27T15:09:35.625Z,75.30
2019-06-27T15:12:07.610Z,74.70
2019-06-27T15:14:39.495Z,72.80
2019-06-27T15:17:12.347Z,73.10
2019-06-27T15:19:44.748Z,73.80
2019-06-27T15:22:16.624Z,73.60
2019-06-27T15:24:47.949Z,74.70
2019-06-27T15:29:51.287Z,71.90
2019-06-27T15:32:24.108Z,72.70
2019-06-27T15:34:57.114Z,70.80
2019-06-27T15:37:30.009Z,71.50
2019-06-27T15:40:03.670Z,71.20
2019-06-27T15:42:36.601Z,69.30
2019-06-27T15:45:11.278Z,68.20
2019-06-27T15:47:43.116Z,68.20
2019-06-27T15:50:16.329Z,68.90
2019-06-27T15:52:49.115Z,69.40
2019-06-27T15:55:21.852Z,68.20
2019-06-27T15:57:54.694Z,67.40
2019-06-27T16:00:27.812Z,68.20
2019-06-27T16:02:59.290Z,68.80
2019-06-27T16:05:32.080Z,66.80
2019-06-27T16:08:04.885Z,67.70
2019-06-27T16:10:37.698Z,66.50
2019-06-27T16:13:09.567Z,64.90
2019-06-27T16:15:42.346Z,64.00
2019-06-27T16:18:15.148Z,64.50
2019-06-27T16:23:19.400Z,64.00
2019-06-27T16:25:54.022Z,63.00
2019-06-27T16:31:00.129Z,62.40
2019-06-27T16:33:32.327Z,61.60
2019-06-27T16:36:04.189Z,61.10
2019-06-27T16:38:37.066Z,59.40
2019-06-27T16:41:11.628Z,61.10
2019-06-27T16:43:43.540Z,61.70
2019-06-27T16:46:15.933Z,60.20
2019-06-27T16:48:48.844Z,61.10
2019-06-27T16:51:22.521Z,59.10
2019-06-27T16:53:54.373Z,60.40
2019-06-27T16:56:29.985Z,58.40
2019-06-27T16:59:01.825Z,58.40
2019-06-27T17:01:33.755Z,59.10
2019-06-27T17:04:06.422Z,59.70
2019-06-27T17:06:42.520Z,59.80
2019-06-27T17:09:14.509Z,61.50
2019-06-27T17:11:47.807Z,62.80
2019-06-27T17:14:20.610Z,63.00
2019-06-27T17:16:53.427Z,62.70
2019-06-27T17:19:25.400Z,64.30
2019-06-27T17:21:58.195Z,65.20
2019-06-27T17:24:32.443Z,66.40
2019-06-27T17:27:04.497Z,67.20
2019-06-27T17:29:36.400Z,67.10
2019-06-27T17:32:10.526Z,66.80
2019-06-27T17:34:42.433Z,68.40
2019-06-27T17:37:18.434Z,68.80
2019-06-27T17:39:49.713Z,71.00
2019-06-27T17:42:22.551Z,72.60
2019-06-27T17:44:54.391Z,74.00
2019-06-27T17:50:11.525Z,75.60
2019-06-27T17:57:50.463Z,78.70
2019-06-27T18:00:23.682Z,79.10
2019-06-27T18:02:56.607Z,80.20
2019-06-27T18:05:29.446Z,80.80
2019-06-27T18:08:01.368Z,81.30
2019-06-27T18:10:34.285Z,81.80
2019-06-27T18:13:06.145Z,82.00
2019-06-27T18:30:52.845Z,84.70
2019-06-27T18:33:24.768Z,85.10
2019-06-27T18:41:04.559Z,86.50
2019-06-27T18:43:36.406Z,87.40
2019-06-27T18:51:13.198Z,90.50
2019-06-27T18:58:49.075Z,91.60
2019-06-27T19:01:21.872Z,92.10
2019-06-27T19:03:54.044Z,92.50
2019-06-27T19:06:26.860Z,92.80
2019-06-27T19:08:59.782Z,93.30
2019-06-27T19:11:33.798Z,93.60
2019-06-27T19:21:54.875Z,94.80
2019-06-27T19:24:28.389Z,95.30
2019-06-27T19:32:04.040Z,96.10
2019-06-27T19:34:38.578Z,96.00
2019-06-27T19:39:43.400Z,96.50
2019-06-27T19:44:50.497Z,96.80
2019-06-27T19:49:54.834Z,97.40
2019-06-27T19:52:26.950Z,97.70
2019-06-27T19:57:37.303Z,98.40
2019-06-27T20:00:11.680Z,98.60
2019-06-27T20:02:45.512Z,99.00
2019-06-27T20:05:16.185Z,99.10
2019-06-27T20:08:19.236Z,99.20
2019-06-27T20:31:05.588Z,99.90
2019-06-27T20:33:38.811Z,99.90
2019-06-27T20:38:42.119Z,99.90
2019-06-27T20:41:14.908Z,99.90
2019-06-27T20:43:46.782Z,99.90
2019-06-27T20:46:19.590Z,99.90
2019-06-27T20:48:53.878Z,99.90
2019-06-27T20:51:25.035Z,99.90
2019-06-27T20:53:57.842Z,99.90
2019-06-27T21:01:35.812Z,99.90
2019-06-27T21:04:08.655Z,99.90
2019-06-27T21:09:15.521Z,99.90
2019-06-27T21:14:20.172Z,99.90
2019-06-27T21:29:33.772Z,99.90
2019-06-27T21:37:10.035Z,99.90
2019-06-27T21:44:49.612Z,99.90
2019-06-27T21:47:22.420Z,99.90
2019-06-27T21:49:58.225Z,99.90
2019-06-27T21:57:33.951Z,99.90
2019-06-27T22:02:40.923Z,99.90
2019-06-27T22:05:13.792Z,99.90
2019-06-27T22:10:19.417Z,99.90
2019-06-27T22:15:25.381Z,99.90
2019-06-27T22:17:58.099Z,99.90
2019-06-27T22:25:40.379Z,99.90
2019-06-27T22:28:09.658Z,99.90
2019-06-27T22:33:12.949Z,99.90
2019-06-27T22:35:44.926Z,99.90
2019-06-27T22:38:34.797Z,99.90
2019-06-27T22:44:12.048Z,99.90
2019-06-27T22:47:02.624Z,99.90
2019-06-27T22:49:35.693Z,99.90
2019-06-27T23:02:34.891Z,99.90
2019-06-27T23:05:08.084Z,99.90
2019-06-27T23:07:40.913Z,99.90
2019-06-27T23:10:14.449Z,99.90
2019-06-27T23:17:50.193Z,99.90
2019-06-27T23:20:24.244Z,99.90
2019-06-27T23:25:32.012Z,99.90
2019-06-27T23:33:11.735Z,99.90
2019-06-27T23:35:45.083Z,99.90
2019-06-27T23:38:18.272Z,99.90
2019-06-27T23:40:50.098Z,99.90
2019-06-27T23:43:22.011Z,99.90
2019-06-27T23:56:00.514Z,99.90
